Terminal Aerodrome Forecast
Issued by NWS

Home | Current Version | Previous Version | Text Only | Print | Product List | Glossary On
Versions: 1 2 3 4 5 6 7 8 9 10 11 12 13 14 15
000
FTUS42 KKEY 231734
TAFMTH
TAF
KMTH 231734Z 2318/2418 17006KT P6SM FEW020 SCT250
     FM240300 16004KT P6SM SCT020
     FM241500 20007KT P6SM SCT020=

USA.gov is the U.S. government's official web portal to all federal, state and local government web resources and services.